createdAt,value
2019-05-29T00:00:41.722Z,7.53
2019-05-29T00:03:12.343Z,8.80
2019-05-29T00:05:41.873Z,8.40
2019-05-29T00:08:12.335Z,7.77
2019-05-29T00:10:42.958Z,7.87
2019-05-29T00:13:12.441Z,8.10
2019-05-29T00:15:41.828Z,7.90
2019-05-29T00:18:12.405Z,8.10
2019-05-29T00:20:42.125Z,7.73
2019-05-29T00:23:12.515Z,7.87
2019-05-29T00:25:42.028Z,7.23
2019-05-29T00:28:12.463Z,7.77
2019-05-29T00:30:42.178Z,8.23
2019-05-29T00:33:12.101Z,7.60
2019-05-29T00:35:41.647Z,8.53
2019-05-29T00:38:11.032Z,7.57
2019-05-29T00:40:40.585Z,7.77
2019-05-29T00:43:10.974Z,7.23
2019-05-29T00:45:40.676Z,7.10
2019-05-29T00:48:10.137Z,6.90
2019-05-29T00:50:39.593Z,6.90
2019-05-29T00:53:10.094Z,6.40
2019-05-29T00:55:39.633Z,7.23
2019-05-29T00:58:09.018Z,6.40
2019-05-29T01:00:38.555Z,6.53
2019-05-29T01:03:07.936Z,6.47
2019-05-29T01:05:37.385Z,6.33
2019-05-29T01:08:06.725Z,5.73
2019-05-29T01:10:36.180Z,5.13
2019-05-29T01:13:06.155Z,5.17
2019-05-29T01:15:35.509Z,4.90
2019-05-29T01:18:05.113Z,5.03
2019-05-29T01:20:34.484Z,4.70
2019-05-29T01:23:03.965Z,4.83
2019-05-29T01:25:33.443Z,5.73
2019-05-29T01:28:02.854Z,4.70
2019-05-29T01:30:32.241Z,4.77
2019-05-29T01:33:01.685Z,4.50
2019-05-29T01:35:31.084Z,4.83
2019-05-29T01:38:00.488Z,5.20
2019-05-29T01:40:29.861Z,5.17
2019-05-29T01:42:59.267Z,5.37
2019-05-29T01:45:28.634Z,5.37
2019-05-29T01:47:58.043Z,5.10
2019-05-29T01:50:27.956Z,4.40
2019-05-29T01:52:57.461Z,5.47
2019-05-29T01:55:27.908Z,4.80
2019-05-29T01:57:57.338Z,5.40
2019-05-29T02:00:28.349Z,4.63
2019-05-29T02:02:57.865Z,4.47
2019-05-29T02:05:28.254Z,4.70
2019-05-29T02:07:57.821Z,4.77
2019-05-29T02:10:27.296Z,4.90
2019-05-29T02:12:56.846Z,4.67
2019-05-29T02:15:33.469Z,4.20
2019-05-29T02:17:57.384Z,4.67
2019-05-29T02:20:27.172Z,4.53
2019-05-29T02:22:56.595Z,4.60
2019-05-29T02:25:26.374Z,4.70
2019-05-29T02:27:56.389Z,4.60
2019-05-29T02:30:30.281Z,4.93
2019-05-29T02:32:57.404Z,4.57
2019-05-29T02:35:29.234Z,4.33
2019-05-29T02:37:57.907Z,4.43
2019-05-29T02:40:29.510Z,4.20
2019-05-29T02:42:58.542Z,4.80
2019-05-29T02:45:50.765Z,4.73
2019-05-29T02:47:59.046Z,4.50
2019-05-29T02:50:29.393Z,4.70
2019-05-29T02:52:59.704Z,4.30
2019-05-29T02:55:30.790Z,4.13
2019-05-29T02:58:00.366Z,3.90
2019-05-29T03:00:54.366Z,4.83
2019-05-29T03:03:26.735Z,3.87
2019-05-29T03:05:56.750Z,4.60
2019-05-29T03:08:27.116Z,4.47
2019-05-29T03:10:57.296Z,4.00
2019-05-29T03:13:27.677Z,4.30
2019-05-29T03:16:10.383Z,4.40
2019-05-29T03:18:30.270Z,4.60
2019-05-29T03:21:00.289Z,4.10
2019-05-29T03:23:31.121Z,4.33
2019-05-29T03:26:00.800Z,3.97
2019-05-29T03:28:30.681Z,4.27
2019-05-29T03:31:01.395Z,3.97
2019-05-29T03:33:38.290Z,4.33
2019-05-29T03:36:01.853Z,4.07
2019-05-29T03:38:32.676Z,4.27
2019-05-29T03:41:02.518Z,3.57
2019-05-29T03:43:33.619Z,3.60
2019-05-29T03:46:03.024Z,4.00
2019-05-29T03:48:34.194Z,3.67
2019-05-29T03:51:03.688Z,3.60
2019-05-29T03:53:33.833Z,3.83
2019-05-29T03:56:04.352Z,3.90
2019-05-29T03:58:35.173Z,4.27
2019-05-29T04:01:04.916Z,3.83
2019-05-29T04:03:35.704Z,3.73
2019-05-29T04:06:06.027Z,3.63
2019-05-29T04:08:35.815Z,3.97
2019-05-29T04:11:07.331Z,3.93
2019-05-29T04:13:38.770Z,3.60
2019-05-29T04:16:10.964Z,4.30
2019-05-29T04:18:42.322Z,3.60
2019-05-29T04:21:13.616Z,3.93
2019-05-29T04:23:47.463Z,3.83
2019-05-29T04:26:19.548Z,4.13
2019-05-29T04:28:50.390Z,4.23
2019-05-29T04:31:19.861Z,4.00
2019-05-29T04:33:49.314Z,4.10
2019-05-29T04:36:18.697Z,4.30
2019-05-29T04:38:48.102Z,4.43
2019-05-29T04:41:17.498Z,4.97
2019-05-29T04:43:46.915Z,4.87
2019-05-29T04:46:16.343Z,4.47
2019-05-29T04:48:45.718Z,5.30
2019-05-29T04:51:15.102Z,5.37
2019-05-29T04:53:44.572Z,5.43
2019-05-29T04:56:13.951Z,5.33
2019-05-29T04:58:43.371Z,5.53
2019-05-29T05:01:12.754Z,5.20
2019-05-29T05:03:42.225Z,4.80
2019-05-29T05:06:11.630Z,4.83
2019-05-29T05:08:41.007Z,5.23
2019-05-29T05:11:12.562Z,4.50
2019-05-29T05:13:41.944Z,4.77
2019-05-29T05:16:11.407Z,4.67
2019-05-29T05:18:40.781Z,4.30
2019-05-29T05:21:10.322Z,4.40
2019-05-29T05:23:40.592Z,3.70
2019-05-29T05:26:10.618Z,4.10
2019-05-29T05:28:43.528Z,4.20
2019-05-29T05:31:11.273Z,3.97
2019-05-29T05:33:41.077Z,3.90
2019-05-29T05:36:10.783Z,3.77
2019-05-29T05:38:41.032Z,3.50
2019-05-29T05:41:10.744Z,3.73
2019-05-29T05:43:41.341Z,3.80
2019-05-29T05:46:11.146Z,3.70
2019-05-29T05:48:41.514Z,3.80
2019-05-29T05:51:11.295Z,4.00
2019-05-29T05:53:41.782Z,3.60
2019-05-29T05:56:11.592Z,3.57
2019-05-29T05:58:42.210Z,3.77
2019-05-29T06:01:12.204Z,3.30
2019-05-29T06:03:42.581Z,3.27
2019-05-29T06:06:12.278Z,3.37
2019-05-29T06:08:42.521Z,3.03
2019-05-29T06:11:12.153Z,3.10
2019-05-29T06:13:42.801Z,3.67
2019-05-29T06:16:12.526Z,3.23
2019-05-29T06:18:42.987Z,2.60
2019-05-29T06:21:12.745Z,2.20
2019-05-29T06:23:43.514Z,1.83
2019-05-29T06:26:13.641Z,2.10
2019-05-29T06:28:43.651Z,2.50
2019-05-29T06:31:13.034Z,2.30
2019-05-29T06:33:43.682Z,1.87
2019-05-29T06:36:13.384Z,1.60
2019-05-29T06:38:44.376Z,1.47
2019-05-29T06:41:14.549Z,0.93
2019-05-29T06:43:44.508Z,1.00
2019-05-29T06:46:14.281Z,1.10
2019-05-29T06:48:57.658Z,1.20
2019-05-29T06:51:14.817Z,0.93
2019-05-29T06:53:44.434Z,1.23
2019-05-29T06:56:14.053Z,0.80
2019-05-29T06:58:44.309Z,0.90
2019-05-29T07:01:13.832Z,0.97
2019-05-29T07:03:44.012Z,1.07
2019-05-29T07:06:13.686Z,0.80
2019-05-29T07:08:46.496Z,0.63
2019-05-29T07:11:14.268Z,0.90
2019-05-29T07:13:47.102Z,0.87
2019-05-29T07:16:14.872Z,0.80
2019-05-29T07:19:20.636Z,0.97
2019-05-29T07:21:15.523Z,0.63
2019-05-29T07:23:46.665Z,0.70
2019-05-29T07:26:16.194Z,1.00
2019-05-29T07:29:01.991Z,0.90
2019-05-29T07:31:16.733Z,0.90
2019-05-29T07:33:47.298Z,0.80
2019-05-29T07:36:17.013Z,1.63
2019-05-29T07:39:01.063Z,0.60
2019-05-29T07:41:17.733Z,0.80
2019-05-29T07:43:48.105Z,0.80
2019-05-29T07:46:17.688Z,0.80
2019-05-29T07:48:48.519Z,0.90
2019-05-29T07:51:18.350Z,1.00
2019-05-29T07:53:48.814Z,1.00
2019-05-29T07:56:22.631Z,1.00
2019-05-29T07:59:01.809Z,1.07
2019-05-29T08:01:20.578Z,0.90
2019-05-29T08:03:49.995Z,1.00
2019-05-29T08:06:19.383Z,1.00
2019-05-29T08:08:49.534Z,0.90
2019-05-29T08:11:19.090Z,1.00
2019-05-29T08:13:49.853Z,0.93
2019-05-29T08:16:19.450Z,1.00
2019-05-29T08:18:52.486Z,1.10
2019-05-29T08:21:19.966Z,1.13
2019-05-29T08:23:50.629Z,1.10
2019-05-29T08:26:20.247Z,1.00
2019-05-29T08:28:50.964Z,0.90
2019-05-29T08:31:20.701Z,0.80
2019-05-29T08:33:51.274Z,1.00
2019-05-29T08:36:20.883Z,1.00
2019-05-29T08:38:51.519Z,0.83
2019-05-29T08:41:21.414Z,1.00
2019-05-29T08:43:50.982Z,0.90
2019-05-29T08:46:20.509Z,0.90
2019-05-29T08:48:50.077Z,0.90
2019-05-29T08:51:19.691Z,0.93
2019-05-29T08:53:51.857Z,1.20
2019-05-29T08:56:20.208Z,0.87
2019-05-29T08:58:50.657Z,0.80
2019-05-29T09:01:20.262Z,0.97
2019-05-29T09:03:51.263Z,0.90
2019-05-29T09:06:21.362Z,0.83
2019-05-29T09:08:52.852Z,1.00
2019-05-29T09:11:22.104Z,1.00
2019-05-29T09:13:51.555Z,0.93
2019-05-29T09:16:21.175Z,0.93
2019-05-29T09:18:51.242Z,0.80
2019-05-29T09:21:20.724Z,0.90
2019-05-29T09:23:50.107Z,0.80
2019-05-29T09:26:23.039Z,0.60
2019-05-29T09:28:50.751Z,0.70
2019-05-29T09:31:20.355Z,0.60
2019-05-29T09:33:50.322Z,0.60
2019-05-29T09:36:20.678Z,0.40
2019-05-29T09:38:50.504Z,0.60
2019-05-29T09:41:21.722Z,0.50
2019-05-29T09:43:58.719Z,0.50
2019-05-29T09:46:23.681Z,0.50
2019-05-29T09:48:53.306Z,0.50
2019-05-29T09:51:22.864Z,0.50
2019-05-29T09:53:53.829Z,0.50
2019-05-29T09:56:23.584Z,0.60
2019-05-29T09:58:55.215Z,0.40
2019-05-29T10:01:25.404Z,0.50
2019-05-29T10:03:57.123Z,0.60
2019-05-29T10:06:26.468Z,0.40
2019-05-29T10:08:57.864Z,0.40
2019-05-29T10:11:27.431Z,0.50
2019-05-29T10:13:58.272Z,0.57
2019-05-29T10:16:28.150Z,0.40
2019-05-29T10:18:59.769Z,0.60
2019-05-29T10:21:39.059Z,0.40
2019-05-29T10:24:01.246Z,0.53
2019-05-29T10:26:31.033Z,0.63
2019-05-29T10:29:07.816Z,0.37
2019-05-29T10:31:31.647Z,0.30
2019-05-29T10:34:01.096Z,0.60
2019-05-29T10:36:30.564Z,0.30
2019-05-29T10:39:00.031Z,0.40
2019-05-29T10:41:29.422Z,0.30
2019-05-29T10:43:58.910Z,0.30
2019-05-29T10:46:28.292Z,0.40
2019-05-29T10:48:57.671Z,0.40
2019-05-29T10:51:27.114Z,0.33
2019-05-29T10:53:58.814Z,0.37
2019-05-29T10:56:27.613Z,0.40
2019-05-29T10:58:59.751Z,0.40
2019-05-29T11:01:28.265Z,0.30
2019-05-29T11:03:57.685Z,0.40
2019-05-29T11:06:27.237Z,0.30
2019-05-29T11:08:56.642Z,0.50
2019-05-29T11:11:26.263Z,0.50
2019-05-29T11:13:57.061Z,0.47
2019-05-29T11:16:26.800Z,0.40
2019-05-29T11:18:57.332Z,0.40
2019-05-29T11:21:26.960Z,0.30
2019-05-29T11:23:56.341Z,0.80
2019-05-29T11:26:25.756Z,0.37
2019-05-29T11:28:56.501Z,0.30
2019-05-29T11:31:26.290Z,0.40
2019-05-29T11:33:57.051Z,0.40
2019-05-29T11:36:26.603Z,0.30
2019-05-29T11:38:56.918Z,0.40
2019-05-29T11:41:27.409Z,0.50
2019-05-29T11:43:56.959Z,0.30
2019-05-29T11:46:26.468Z,0.40
2019-05-29T11:48:57.241Z,0.40
2019-05-29T11:51:26.792Z,0.33
2019-05-29T11:53:57.420Z,0.40
2019-05-29T11:56:27.019Z,0.40
2019-05-29T11:58:57.001Z,0.40
2019-05-29T12:01:26.585Z,0.40
2019-05-29T12:04:21.949Z,0.30
2019-05-29T12:06:27.136Z,0.50
2019-05-29T12:08:57.939Z,0.37
2019-05-29T12:11:27.577Z,0.30
2019-05-29T12:13:58.038Z,0.33
2019-05-29T12:16:27.642Z,0.40
2019-05-29T12:18:57.809Z,0.37
2019-05-29T12:21:27.378Z,0.50
2019-05-29T12:23:58.090Z,0.37
2019-05-29T12:26:27.555Z,0.30
2019-05-29T12:29:04.841Z,0.30
2019-05-29T12:31:28.171Z,0.45
2019-05-29T12:34:00.060Z,0.20
2019-05-29T12:36:28.713Z,0.40
2019-05-29T12:38:59.531Z,0.40
2019-05-29T12:41:29.033Z,0.20
2019-05-29T12:43:59.948Z,0.40
2019-05-29T12:46:29.357Z,0.30
2019-05-29T12:48:59.517Z,0.30
2019-05-29T12:51:28.901Z,0.40
2019-05-29T12:53:58.380Z,0.30
2019-05-29T12:56:27.821Z,0.35
2019-05-29T12:58:58.314Z,0.40
2019-05-29T13:01:27.957Z,0.40
2019-05-29T13:03:58.664Z,0.40
2019-05-29T13:06:28.132Z,0.40
2019-05-29T13:08:58.473Z,0.30
2019-05-29T13:11:28.016Z,0.45
2019-05-29T13:13:58.447Z,0.40
2019-05-29T13:16:27.931Z,0.35
2019-05-29T13:18:58.929Z,0.50
2019-05-29T13:21:28.490Z,0.40
2019-05-29T13:24:01.695Z,0.50
2019-05-29T13:26:29.020Z,0.42
2019-05-29T13:28:59.718Z,0.50
2019-05-29T13:31:29.167Z,0.60
2019-05-29T13:33:59.957Z,0.37
2019-05-29T13:36:29.471Z,0.25
2019-05-29T13:38:59.851Z,0.42
2019-05-29T13:41:29.621Z,0.60
2019-05-29T13:44:00.372Z,0.40
2019-05-29T13:46:30.010Z,0.40
2019-05-29T13:49:00.861Z,0.40
2019-05-29T13:51:30.641Z,0.45
2019-05-29T13:54:06.566Z,0.40
2019-05-29T13:56:31.253Z,0.57
2019-05-29T13:59:01.942Z,0.50
2019-05-29T14:01:31.490Z,0.45
2019-05-29T14:04:02.343Z,0.40
2019-05-29T14:06:32.049Z,0.50
2019-05-29T14:09:02.820Z,0.30
2019-05-29T14:11:32.332Z,0.30
2019-05-29T14:14:04.035Z,0.50
2019-05-29T14:16:32.951Z,0.30
2019-05-29T14:19:02.816Z,0.40
2019-05-29T14:21:32.392Z,0.30
2019-05-29T14:24:07.359Z,0.60
2019-05-29T14:26:33.006Z,0.30
2019-05-29T14:29:03.531Z,0.30
2019-05-29T14:31:32.988Z,0.30
2019-05-29T14:34:03.042Z,0.30
2019-05-29T14:36:32.569Z,0.40
2019-05-29T14:39:01.961Z,0.42
2019-05-29T14:41:31.371Z,0.40
2019-05-29T14:44:01.691Z,0.30
2019-05-29T14:46:31.324Z,0.40
2019-05-29T14:49:02.178Z,0.40
2019-05-29T14:51:31.855Z,0.47
2019-05-29T14:54:02.656Z,0.40
2019-05-29T14:56:32.376Z,0.30
2019-05-29T14:59:03.245Z,0.40
2019-05-29T15:01:32.863Z,0.30
2019-05-29T15:04:03.518Z,0.68
2019-05-29T15:06:32.981Z,0.40
2019-05-29T15:09:03.529Z,0.37
2019-05-29T15:11:33.067Z,0.50
2019-05-29T15:14:02.546Z,0.45
2019-05-29T15:16:31.976Z,0.37
2019-05-29T15:19:01.425Z,0.40
2019-05-29T15:21:30.825Z,0.50
2019-05-29T15:24:00.256Z,0.50
2019-05-29T15:26:29.653Z,0.55
2019-05-29T15:28:59.124Z,0.50
2019-05-29T15:31:28.566Z,0.50
2019-05-29T15:33:58.017Z,0.40
2019-05-29T15:36:27.429Z,0.40
2019-05-29T15:38:56.829Z,0.50
2019-05-29T15:41:26.256Z,0.45
2019-05-29T15:43:55.743Z,0.40
2019-05-29T15:46:25.170Z,0.40
2019-05-29T15:48:54.568Z,0.50
2019-05-29T15:51:23.983Z,0.37
2019-05-29T15:53:53.470Z,0.40
2019-05-29T15:56:27.890Z,0.40
2019-05-29T15:58:53.973Z,0.30
2019-05-29T16:01:23.381Z,0.30
2019-05-29T16:03:53.139Z,0.30
2019-05-29T16:06:22.657Z,0.40
2019-05-29T16:08:52.126Z,0.30
2019-05-29T16:11:25.137Z,0.60
2019-05-29T16:13:52.792Z,0.45
2019-05-29T16:16:22.273Z,0.40
2019-05-29T16:18:51.652Z,0.50
2019-05-29T16:21:21.126Z,0.40
2019-05-29T16:23:50.574Z,0.30
2019-05-29T16:26:20.367Z,0.40
2019-05-29T16:28:50.847Z,0.30
2019-05-29T16:31:20.328Z,0.30
2019-05-29T16:33:49.746Z,0.30
2019-05-29T16:36:20.191Z,0.50
2019-05-29T16:38:49.774Z,0.60
2019-05-29T16:41:19.866Z,0.40
2019-05-29T16:43:49.281Z,0.60
2019-05-29T16:46:21.123Z,0.50
2019-05-29T16:48:49.987Z,0.60
2019-05-29T16:51:19.365Z,0.68
2019-05-29T16:53:48.876Z,0.20
2019-05-29T16:56:18.984Z,0.17
2019-05-29T16:58:48.467Z,0.20
2019-05-29T17:01:17.901Z,0.20
2019-05-29T17:03:47.406Z,0.20
2019-05-29T17:06:17.743Z,0.10
2019-05-29T17:08:47.395Z,0.25
2019-05-29T17:11:16.968Z,0.20
2019-05-29T17:13:46.736Z,0.10
2019-05-29T17:16:16.414Z,0.20
2019-05-29T17:18:46.233Z,0.08
2019-05-29T17:21:16.511Z,0.20
2019-05-29T17:23:46.144Z,0.30
2019-05-29T17:26:16.657Z,0.10
2019-05-29T17:28:46.194Z,0.10
2019-05-29T17:31:16.799Z,0.20
2019-05-29T17:33:46.279Z,0.20
2019-05-29T17:36:16.760Z,0.10
2019-05-29T17:38:46.370Z,0.20
2019-05-29T17:41:17.193Z,0.20
2019-05-29T17:43:46.847Z,0.30
2019-05-29T17:46:17.327Z,0.10
2019-05-29T17:48:47.074Z,0.20
2019-05-29T17:51:17.535Z,0.20
2019-05-29T17:53:47.128Z,0.20
2019-05-29T17:56:28.434Z,0.23
2019-05-29T17:58:47.659Z,0.20
2019-05-29T18:01:18.221Z,0.20
2019-05-29T18:03:47.748Z,0.30
2019-05-29T18:06:18.258Z,0.40
2019-05-29T18:08:47.843Z,0.25
2019-05-29T18:11:17.306Z,0.20
2019-05-29T18:13:46.743Z,0.10
2019-05-29T18:16:17.286Z,0.30
2019-05-29T18:18:46.841Z,0.30
2019-05-29T18:21:17.351Z,0.40
2019-05-29T18:23:46.889Z,0.37
2019-05-29T18:26:16.321Z,0.30
2019-05-29T18:28:45.818Z,0.28
2019-05-29T18:31:15.214Z,0.30
2019-05-29T18:33:44.731Z,0.27
2019-05-29T18:36:14.107Z,0.50
2019-05-29T18:38:43.514Z,0.27
2019-05-29T18:41:12.924Z,0.30
2019-05-29T18:43:42.404Z,0.30
2019-05-29T18:46:11.881Z,0.30
2019-05-29T18:48:41.294Z,0.50
2019-05-29T18:51:10.741Z,0.30
2019-05-29T18:53:40.344Z,0.40
2019-05-29T18:56:09.746Z,0.50
2019-05-29T18:58:39.426Z,0.37
2019-05-29T19:01:09.087Z,0.40
2019-05-29T19:03:40.562Z,0.60
2019-05-29T19:06:09.615Z,0.47
2019-05-29T19:08:39.040Z,0.60
2019-05-29T19:11:08.507Z,0.60
2019-05-29T19:13:37.910Z,0.50
2019-05-29T19:16:07.592Z,0.70
2019-05-29T19:18:37.033Z,0.60
2019-05-29T19:21:06.575Z,0.70
2019-05-29T19:23:35.993Z,0.57
2019-05-29T19:26:05.612Z,0.60
2019-05-29T19:28:35.090Z,0.50
2019-05-29T19:31:04.659Z,0.50
2019-05-29T19:33:34.109Z,0.70
2019-05-29T19:36:03.660Z,0.93
2019-05-29T19:38:34.139Z,0.60
2019-05-29T19:41:03.853Z,0.60
2019-05-29T19:43:34.389Z,0.60
2019-05-29T19:46:04.230Z,0.70
2019-05-29T19:48:35.107Z,0.50
2019-05-29T19:51:04.915Z,0.60
2019-05-29T19:53:35.533Z,0.87
2019-05-29T19:56:05.644Z,0.80
2019-05-29T19:58:36.151Z,0.70
2019-05-29T20:01:06.332Z,0.80
2019-05-29T20:03:36.689Z,1.27
2019-05-29T20:06:06.424Z,0.80
2019-05-29T20:08:37.805Z,0.90
2019-05-29T20:11:08.159Z,0.90
2019-05-29T20:13:37.984Z,1.00
2019-05-29T20:16:07.587Z,0.83
2019-05-29T20:18:38.355Z,1.00
2019-05-29T20:21:07.972Z,1.00
2019-05-29T20:23:37.389Z,1.00
2019-05-29T20:26:07.461Z,1.00
2019-05-29T20:28:36.920Z,1.80
2019-05-29T20:31:06.544Z,1.77
2019-05-29T20:33:36.648Z,1.83
2019-05-29T20:36:06.167Z,2.20
2019-05-29T20:38:35.601Z,2.00
2019-05-29T20:41:05.127Z,1.20
2019-05-29T20:43:35.511Z,1.47
2019-05-29T20:46:05.078Z,2.00
2019-05-29T20:48:34.633Z,1.90
2019-05-29T20:51:04.232Z,2.10
2019-05-29T20:53:33.691Z,2.27
2019-05-29T20:56:03.158Z,2.10
2019-05-29T20:58:33.698Z,2.17
2019-05-29T21:01:03.622Z,2.20
2019-05-29T21:03:34.261Z,2.07
2019-05-29T21:06:05.121Z,2.10
2019-05-29T21:08:34.762Z,2.00
2019-05-29T21:11:04.428Z,2.20
2019-05-29T21:13:33.824Z,2.60
2019-05-29T21:16:03.294Z,3.90
2019-05-29T21:18:33.824Z,3.07
2019-05-29T21:21:03.284Z,3.33
2019-05-29T21:23:32.718Z,2.73
2019-05-29T21:26:02.110Z,2.57
2019-05-29T21:28:40.858Z,2.07
2019-05-29T21:31:02.716Z,2.27
2019-05-29T21:33:32.304Z,2.63
2019-05-29T21:36:01.731Z,2.50
2019-05-29T21:38:31.161Z,2.90
2019-05-29T21:41:00.583Z,3.00
2019-05-29T21:43:29.964Z,3.20
2019-05-29T21:45:59.367Z,3.13
2019-05-29T21:48:28.795Z,3.47
2019-05-29T21:50:58.189Z,3.40
2019-05-29T21:53:27.639Z,3.57
2019-05-29T21:55:57.064Z,2.93
2019-05-29T21:58:26.597Z,3.13
2019-05-29T22:00:56.668Z,2.80
2019-05-29T22:03:26.174Z,2.80
2019-05-29T22:05:55.698Z,2.50
2019-05-29T22:08:25.101Z,2.40
2019-05-29T22:10:55.570Z,2.00
2019-05-29T22:13:25.228Z,1.93
2019-05-29T22:15:54.817Z,1.90
2019-05-29T22:18:24.546Z,2.13
2019-05-29T22:20:56.381Z,1.97
2019-05-29T22:23:25.078Z,1.63
2019-05-29T22:25:55.288Z,2.20
2019-05-29T22:28:24.796Z,1.87
2019-05-29T22:30:55.316Z,2.10
2019-05-29T22:33:24.919Z,2.00
2019-05-29T22:35:55.672Z,1.90
2019-05-29T22:38:25.144Z,1.90
2019-05-29T22:40:55.515Z,1.70
2019-05-29T22:43:25.408Z,2.10
2019-05-29T22:45:55.593Z,1.83
2019-05-29T22:48:25.072Z,1.70
2019-05-29T22:50:55.658Z,2.20
2019-05-29T22:53:25.161Z,1.90
2019-05-29T22:55:55.689Z,1.90
2019-05-29T22:58:25.191Z,1.97
2019-05-29T23:00:55.881Z,2.47
2019-05-29T23:03:25.321Z,1.93
2019-05-29T23:05:54.742Z,2.30
2019-05-29T23:08:24.280Z,2.23
2019-05-29T23:10:54.202Z,2.00
2019-05-29T23:13:23.650Z,2.20
2019-05-29T23:15:54.210Z,2.20
2019-05-29T23:18:23.836Z,2.20
2019-05-29T23:20:54.129Z,2.10
2019-05-29T23:23:23.754Z,2.30
2019-05-29T23:25:53.164Z,2.40
2019-05-29T23:28:22.633Z,2.23
2019-05-29T23:30:52.777Z,2.20
2019-05-29T23:33:22.323Z,2.77
2019-05-29T23:35:52.905Z,2.57
2019-05-29T23:38:22.326Z,2.33
2019-05-29T23:40:53.116Z,2.20
2019-05-29T23:43:22.606Z,2.47
2019-05-29T23:45:53.192Z,2.33
2019-05-29T23:48:22.795Z,2.50
2019-05-29T23:50:53.337Z,2.23
2019-05-29T23:53:22.887Z,2.23
2019-05-29T23:55:53.893Z,2.30
2019-05-29T23:58:23.782Z,2.47
